Time;durP1;ratioP1;P1;durP2;ratioP2;P2;SDS_P1;SDS_P2;PMS_P1;PMS_P2;Temp;Humidity;BMP_temperature;BMP_pressure;BME280_temperature;BME280_humidity;BME280_pressure;Samples;Min_cycle;Max_cycle;Signal;HPM_P1;HPM_P2
2022/04/10 00:02:26;;;;;;;5.97;2.20;;;2.40;99.90;1.50;98958;;;;576567;246;24070;-78
2022/04/10 00:04:52;;;;;;;6.10;2.10;;;2.50;99.90;1.50;98964;;;;576520;246;24072;-80
2022/04/10 00:07:19;;;;;;;2.90;2.20;;;2.50;99.90;1.50;98963;;;;576616;246;24103;-79
2022/04/10 00:09:47;;;;;;;4.40;2.20;;;2.50;99.90;1.50;98961;;;;576686;246;24161;-79
2022/04/10 00:12:16;;;;;;;7.70;3.20;;;2.40;99.90;1.40;98964;;;;577008;246;24055;-79
2022/04/10 00:14:45;;;;;;;5.70;2.70;;;2.40;99.90;1.50;98971;;;;576937;246;24058;-81
2022/04/10 00:17:15;;;;;;;7.77;2.40;;;2.40;99.90;1.50;98952;;;;577058;246;24065;-81
2022/04/10 00:19:40;;;;;;;4.57;2.27;;;2.40;99.90;1.50;98963;;;;577606;244;24111;-81
2022/04/10 00:22:08;;;;;;;10.20;2.70;;;2.40;99.90;1.50;98956;;;;577915;243;24077;-84
2022/04/10 00:24:36;;;;;;;5.40;2.47;;;2.40;99.90;1.50;98959;;;;577831;243;24088;-81
2022/04/10 00:27:06;;;;;;;5.40;2.33;;;2.40;99.90;1.50;98959;;;;577759;246;24053;-82
2022/04/10 00:29:31;;;;;;;9.03;2.67;;;2.40;99.90;1.50;98959;;;;552238;256;24153;-82
2022/04/10 00:31:59;;;;;;;6.63;2.40;;;2.40;99.90;1.50;98957;;;;577397;246;24056;-80
2022/04/10 00:34:27;;;;;;;7.80;2.30;;;2.40;99.90;1.50;98957;;;;577430;244;24089;-79
2022/04/10 00:36:55;;;;;;;5.50;2.17;;;2.40;99.90;1.50;98955;;;;577443;246;24155;-82
2022/04/10 00:39:24;;;;;;;7.00;2.57;;;2.40;99.90;1.50;98962;;;;577618;246;25097;-81
2022/04/10 00:41:51;;;;;;;2.97;1.87;;;2.40;99.90;1.40;98956;;;;552312;256;24139;-83
2022/04/10 00:44:20;;;;;;;9.67;2.37;;;2.40;99.90;1.40;98960;;;;577440;244;24142;-82
2022/04/10 00:46:51;;;;;;;5.67;2.80;;;2.40;99.90;1.40;98968;;;;577640;246;24087;-84
2022/04/10 00:49:18;;;;;;;5.80;2.77;;;2.40;99.90;1.40;98971;;;;577219;246;24087;-85
2022/04/10 00:51:46;;;;;;;8.20;2.43;;;2.40;99.90;1.40;98966;;;;577100;246;24078;-84
2022/04/10 00:54:18;;;;;;;5.43;2.17;;;2.40;99.90;1.40;98959;;;;577484;246;24070;-82
2022/04/10 00:56:43;;;;;;;8.40;2.20;;;2.40;99.90;1.40;98975;;;;576702;246;24061;-78
2022/04/10 00:59:11;;;;;;;5.33;2.23;;;2.40;99.90;1.40;98961;;;;581021;246;24102;-82
2022/04/10 01:01:39;;;;;;;4.80;1.93;;;2.40;99.90;1.40;98962;;;;580837;246;24068;-79
2022/04/10 01:04:06;;;;;;;8.57;2.50;;;2.40;99.90;1.40;98962;;;;577107;246;24068;-81
2022/04/10 01:06:37;;;;;;;5.30;2.40;;;2.30;99.90;1.40;98961;;;;552164;254;24153;-79
2022/04/10 01:09:02;;;;;;;9.53;2.43;;;2.30;99.90;1.40;98968;;;;576418;246;24470;-79
2022/04/10 01:11:35;;;;;;;4.80;2.13;;;2.30;99.90;1.40;98963;;;;559981;250;24165;-78
2022/04/10 01:14:02;;;;;;;4.83;2.03;;;2.30;99.90;1.30;98966;;;;576342;246;24066;-80
2022/04/10 01:16:27;;;;;;;4.90;1.97;;;2.30;99.90;1.40;98970;;;;585446;245;24113;-78
2022/04/10 01:18:55;;;;;;;5.47;2.20;;;2.30;99.90;1.40;98952;;;;559804;255;24225;-84
2022/04/10 01:21:28;;;;;;;4.47;1.70;;;2.30;99.90;1.50;98956;;;;571689;245;35146;-83
2022/04/10 01:23:53;;;;;;;2.40;1.20;;;2.40;99.90;1.50;98976;;;;573229;246;24060;-81
2022/04/10 01:26:21;;;;;;;4.93;1.50;;;2.40;99.90;1.40;98968;;;;573315;245;24083;-78
2022/04/10 01:28:57;;;;;;;2.90;1.33;;;2.40;99.90;1.40;98975;;;;576358;246;24111;-78
2022/04/10 01:31:24;;;;;;;1.57;1.23;;;2.40;99.90;1.50;98975;;;;557637;254;24143;-78
2022/04/10 01:33:56;;;;;;;2.03;1.33;;;2.40;99.90;1.50;98973;;;;577905;245;24099;-78
2022/04/10 01:36:22;;;;;;;3.80;1.37;;;2.40;99.90;1.40;98975;;;;577329;246;24088;-77
2022/04/10 01:38:47;;;;;;;1.93;1.23;;;2.40;99.90;1.40;98992;;;;586475;244;24131;-81
2022/04/10 01:41:16;;;;;;;3.20;1.80;;;2.40;99.90;1.40;98988;;;;560194;253;24121;-78
2022/04/10 01:43:47;;;;;;;2.97;1.10;;;2.30;99.90;1.40;98993;;;;576943;246;24106;-78
2022/04/10 01:46:15;;;;;;;2.20;1.77;;;2.30;99.90;1.40;98990;;;;577202;246;25116;-78
2022/04/10 01:48:43;;;;;;;4.07;1.90;;;2.30;99.90;1.40;98984;;;;580312;246;24084;-77
2022/04/10 01:51:11;;;;;;;3.00;1.50;;;2.40;99.90;1.40;98987;;;;560253;255;24124;-78
2022/04/10 01:53:42;;;;;;;2.53;1.23;;;2.40;99.90;1.40;98997;;;;577208;244;24064;-78
2022/04/10 01:56:07;;;;;;;6.43;1.73;;;2.30;99.90;1.40;98994;;;;576882;244;24061;-77
2022/04/10 01:58:35;;;;;;;4.47;1.73;;;2.30;99.90;1.40;99004;;;;573844;246;24047;-79
2022/04/10 02:01:03;;;;;;;11.68;2.53;;;2.30;99.90;1.40;98992;;;;568751;246;46221;-78
2022/04/10 02:03:30;;;;;;;4.47;1.90;;;2.30;99.90;1.40;99011;;;;573652;246;24059;-78
2022/04/10 02:06:01;;;;;;;3.00;1.80;;;2.30;99.90;1.40;98998;;;;577167;246;24068;-79
2022/04/10 02:08:30;;;;;;;5.37;2.33;;;2.30;99.90;1.40;98992;;;;576333;246;24176;-80
2022/04/10 02:10:54;;;;;;;5.23;1.30;;;2.40;99.90;1.40;99000;;;;576060;246;24098;-78
2022/04/10 02:13:22;;;;;;;7.60;2.00;;;2.40;99.90;1.40;99001;;;;551679;254;24239;-78
2022/04/10 02:15:50;;;;;;;2.93;1.50;;;2.40;99.90;1.40;98995;;;;576664;246;24057;-80
2022/04/10 02:18:21;;;;;;;4.00;1.57;;;2.40;99.90;1.40;99012;;;;551755;250;24101;-78
2022/04/10 02:20:46;;;;;;;4.23;1.47;;;2.40;99.90;1.40;99009;;;;576641;246;24054;-79
2022/04/10 02:23:14;;;;;;;4.53;1.17;;;2.40;99.90;1.40;99005;;;;576863;246;24199;-78
2022/04/10 02:25:42;;;;;;;5.60;1.77;;;2.40;99.90;1.40;99013;;;;576864;246;24123;-78
2022/04/10 02:28:10;;;;;;;6.07;1.90;;;2.40;99.90;1.50;99013;;;;576926;244;24107;-79
2022/04/10 02:30:38;;;;;;;1.77;0.93;;;2.40;99.90;1.50;99011;;;;551774;256;24106;-79
2022/04/10 02:33:06;;;;;;;5.33;1.80;;;2.40;99.90;1.50;99014;;;;576793;246;24099;-79
2022/04/10 02:35:34;;;;;;;4.00;1.50;;;2.40;99.90;1.40;99005;;;;576783;244;24134;-78
2022/04/10 02:38:02;;;;;;;14.13;2.43;;;2.40;99.90;1.50;98997;;;;576943;246;24105;-77
2022/04/10 02:40:30;;;;;;;3.90;1.70;;;2.40;99.90;1.50;99013;;;;576549;244;24085;-78
2022/04/10 02:42:58;;;;;;;8.53;2.33;;;2.40;99.90;1.50;99018;;;;577477;244;25144;-77
2022/04/10 02:45:26;;;;;;;4.90;1.50;;;2.40;99.90;1.50;99020;;;;577759;245;24067;-79
2022/04/10 02:47:54;;;;;;;3.83;1.60;;;2.40;99.90;1.50;99018;;;;577607;246;24104;-80
2022/04/10 02:50:22;;;;;;;8.13;1.43;;;2.40;99.90;1.50;99008;;;;577642;246;24075;-79
2022/04/10 02:52:51;;;;;;;2.33;1.43;;;2.40;99.90;1.60;99013;;;;577884;246;24069;-80
2022/04/10 02:55:21;;;;;;;6.20;1.57;;;2.50;99.90;1.60;99016;;;;552513;256;24161;-80
2022/04/10 02:57:45;;;;;;;7.53;1.50;;;2.60;99.90;1.70;99011;;;;577684;246;24088;-84
2022/04/10 03:00:14;;;;;;;7.50;1.90;;;2.60;99.90;1.70;99019;;;;552427;254;24207;-79
2022/04/10 03:02:42;;;;;;;2.17;1.37;;;2.60;99.90;1.70;99014;;;;577042;244;24095;-83
2022/04/10 03:05:11;;;;;;;3.23;1.40;;;2.60;99.90;1.70;99013;;;;576928;240;24052;-80
2022/04/10 03:07:42;;;;;;;5.60;1.73;;;2.60;99.90;1.70;99019;;;;577150;246;24067;-81
2022/04/10 03:10:07;;;;;;;3.33;1.47;;;2.60;99.90;1.70;99014;;;;576424;246;24064;-80
2022/04/10 03:12:35;;;;;;;3.03;1.83;;;2.70;99.90;1.70;99023;;;;576881;246;24072;-78
2022/04/10 03:15:03;;;;;;;4.30;1.43;;;2.70;99.90;1.70;99019;;;;576939;246;24133;-79
2022/04/10 03:17:31;;;;;;;3.23;1.37;;;2.70;99.90;1.70;99029;;;;580718;246;24067;-79
2022/04/10 03:19:59;;;;;;;3.87;2.27;;;2.70;99.90;1.70;99020;;;;551865;256;24109;-78
2022/04/10 03:22:27;;;;;;;6.75;2.15;;;2.60;99.90;1.60;99030;;;;572203;246;35147;-79
2022/04/10 03:24:55;;;;;;;4.63;2.37;;;2.60;99.90;1.60;99022;;;;577342;244;24172;-79
2022/04/10 03:27:23;;;;;;;4.70;1.03;;;2.60;99.90;1.50;99020;;;;577239;244;24068;-80
2022/04/10 03:29:51;;;;;;;2.53;1.40;;;2.50;99.90;1.50;99013;;;;552077;255;24133;-77
2022/04/10 03:32:19;;;;;;;7.80;1.70;;;2.50;99.90;1.40;99020;;;;577307;246;24090;-79
2022/04/10 03:34:47;;;;;;;4.27;1.43;;;2.40;99.90;1.40;99025;;;;577825;246;24134;-80
2022/04/10 03:37:14;;;;;;;5.17;1.97;;;2.40;99.90;1.30;99032;;;;578259;246;25205;-79
2022/04/10 03:39:42;;;;;;;12.07;2.43;;;2.30;99.90;1.30;99038;;;;577665;246;24155;-79
2022/04/10 03:42:10;;;;;;;2.47;1.30;;;2.20;99.90;1.30;99036;;;;577348;245;24053;-78
2022/04/10 03:44:38;;;;;;;4.33;1.43;;;2.20;99.90;1.30;99042;;;;577334;246;24058;-79
2022/04/10 03:47:10;;;;;;;0.87;0.87;;;2.30;99.90;1.30;99037;;;;551975;253;25184;-79
2022/04/10 03:49:34;;;;;;;4.73;1.47;;;2.30;99.90;1.30;99032;;;;577454;246;24087;-80
2022/04/10 03:52:02;;;;;;;3.30;1.20;;;2.30;99.90;1.30;99051;;;;577457;246;24191;-79
2022/04/10 03:54:31;;;;;;;6.17;1.63;;;2.30;99.90;1.30;99048;;;;578042;245;24094;-79
2022/04/10 03:56:59;;;;;;;1.67;1.50;;;2.20;99.90;1.30;99054;;;;578603;245;24059;-77
2022/04/10 03:59:26;;;;;;;4.80;1.33;;;2.20;99.90;1.30;99068;;;;578178;246;24111;-78
2022/04/10 04:01:55;;;;;;;5.03;1.27;;;2.30;99.90;1.30;99064;;;;578128;246;24069;-78
2022/04/10 04:04:22;;;;;;;2.93;1.30;;;2.30;99.90;1.30;99061;;;;552792;256;24152;-78
2022/04/10 04:06:51;;;;;;;2.37;1.47;;;2.30;99.90;1.40;99070;;;;577978;246;24049;-79
2022/04/10 04:09:19;;;;;;;2.10;1.13;;;2.30;99.90;1.40;99074;;;;578117;246;24058;-78
2022/04/10 04:11:47;;;;;;;1.30;1.17;;;2.40;99.90;1.40;99069;;;;577698;246;25125;-79
2022/04/10 04:14:15;;;;;;;4.47;1.10;;;2.30;99.90;1.40;99086;;;;577075;246;24096;-77
2022/04/10 04:16:43;;;;;;;2.33;1.20;;;2.40;99.90;1.50;99073;;;;551812;254;24119;-79
2022/04/10 04:19:11;;;;;;;3.10;1.40;;;2.40;99.90;1.50;99070;;;;576925;246;24052;-79
2022/04/10 04:21:39;;;;;;;2.57;1.40;;;2.40;99.90;1.50;99073;;;;576968;246;24044;-78
2022/04/10 04:24:08;;;;;;;3.17;1.10;;;2.50;99.90;1.50;99085;;;;551626;256;24109;-79
2022/04/10 04:26:36;;;;;;;2.40;1.30;;;2.50;99.90;1.50;99086;;;;576782;246;24088;-79
2022/04/10 04:29:04;;;;;;;4.67;1.37;;;2.50;99.90;1.60;99087;;;;576961;246;24170;-81
2022/04/10 04:31:31;;;;;;;4.97;1.57;;;2.50;99.90;1.60;99099;;;;552146;256;24112;-80
2022/04/10 04:33:59;;;;;;;1.70;0.90;;;2.60;99.90;1.70;99103;;;;577198;246;24056;-79
2022/04/10 04:36:31;;;;;;;4.37;1.30;;;2.70;99.90;1.80;99111;;;;552369;256;24109;-82
2022/04/10 04:38:57;;;;;;;3.50;1.30;;;2.70;99.90;1.90;99118;;;;577032;246;24081;-83
2022/04/10 04:41:24;;;;;;;6.70;1.23;;;2.80;99.90;1.90;99109;;;;577837;246;24092;-84
2022/04/10 04:43:52;;;;;;;4.07;1.53;;;2.90;99.90;2.00;99103;;;;552695;256;24093;-83
2022/04/10 04:46:20;;;;;;;4.23;1.20;;;2.90;99.90;2.10;99113;;;;577463;246;24076;-79
2022/04/10 04:48:48;;;;;;;2.57;0.97;;;3.00;99.90;2.20;99122;;;;551695;256;24200;-79
2022/04/10 04:51:16;;;;;;;2.30;1.10;;;3.20;99.90;2.40;99132;;;;577013;246;24178;-78
2022/04/10 04:53:44;;;;;;;1.00;0.80;;;3.20;99.90;2.50;99125;;;;576927;246;25094;-77
2022/04/10 04:56:13;;;;;;;2.90;1.33;;;3.60;99.90;2.80;99138;;;;576891;246;25138;-76
2022/04/10 04:58:41;;;;;;;0.93;0.90;;;3.60;99.90;3.10;99140;;;;576895;246;24083;-76
2022/04/10 05:01:10;;;;;;;4.47;1.17;;;4.60;99.90;3.90;99154;;;;576909;244;24157;-78
2022/04/10 05:03:37;;;;;;;3.97;1.10;;;4.60;99.90;5.10;99149;;;;576880;246;24139;-78
2022/04/10 05:06:05;;;;;;;1.53;1.33;;;5.70;99.90;6.00;99149;;;;577819;245;24045;-78
2022/04/10 05:08:33;;;;;;;7.27;1.60;;;6.60;99.90;7.00;99162;;;;578003;245;24029;-80
2022/04/10 05:11:05;;;;;;;0.47;0.47;;;7.50;99.90;8.40;99185;;;;577737;246;24046;-77
2022/04/10 05:13:32;;;;;;;4.43;1.47;;;8.80;99.90;9.80;99180;;;;577534;246;24061;-78
2022/04/10 05:15:57;;;;;;;3.80;1.30;;;10.20;99.90;11.10;99195;;;;577039;246;24090;-79
2022/04/10 05:18:25;;;;;;;2.77;1.47;;;11.60;99.90;12.40;99201;;;;573962;246;24058;-78
2022/04/10 05:20:53;;;;;;;3.93;1.30;;;12.80;99.90;13.30;99184;;;;573969;245;24053;-78
2022/04/10 05:23:21;;;;;;;3.87;1.30;;;13.80;96.30;13.80;99199;;;;574199;246;24033;-78
2022/04/10 05:25:51;;;;;;;3.03;0.90;;;14.50;91.60;14.50;99197;;;;577904;246;24064;-81
2022/04/10 05:28:16;;;;;;;4.43;1.13;;;15.20;86.90;14.90;99203;;;;577401;246;24075;-81
2022/04/10 05:30:44;;;;;;;2.57;1.10;;;15.70;82.90;15.50;99212;;;;577217;246;24057;-79
2022/04/10 05:33:16;;;;;;;2.10;0.90;;;16.30;78.90;16.30;99221;;;;577295;246;24046;-79
2022/04/10 05:35:44;;;;;;;1.40;0.90;;;17.60;71.70;16.80;99226;;;;562362;251;24081;-85
2022/04/10 05:38:12;;;;;;;3.20;1.23;;;17.50;70.90;17.30;99218;;;;577594;246;24121;-80
2022/04/10 05:40:37;;;;;;;4.50;1.47;;;18.10;68.30;17.80;99229;;;;576954;246;24106;-78
2022/04/10 05:43:05;;;;;;;2.90;1.30;;;18.50;65.50;18.20;99223;;;;573044;246;24115;-79
2022/04/10 05:45:33;;;;;;;3.60;1.40;;;19.30;60.90;18.50;99227;;;;573076;246;24054;-80
2022/04/10 05:48:02;;;;;;;4.03;1.53;;;19.30;60.90;19.10;99241;;;;577346;246;24121;-80
2022/04/10 05:50:30;;;;;;;3.07;1.50;;;19.80;59.30;19.50;99244;;;;573898;246;24073;-82
2022/04/10 05:52:58;;;;;;;3.07;1.50;;;20.70;56.70;19.70;99248;;;;573693;246;24099;-79
2022/04/10 05:55:28;;;;;;;5.10;1.57;;;20.60;56.60;18.00;99247;;;;573399;246;24051;-80
2022/04/10 05:57:54;;;;;;;3.40;1.20;;;19.60;56.60;17.80;99238;;;;551374;255;24104;-82
2022/04/10 06:00:23;;;;;;;5.07;1.70;;;18.90;59.80;17.40;99240;;;;577314;244;24092;-81
2022/04/10 06:02:50;;;;;;;3.17;1.30;;;18.60;63.90;15.00;99263;;;;551677;255;24105;-82
2022/04/10 06:05:21;;;;;;;5.27;1.63;;;16.80;70.70;13.60;99266;;;;577371;246;24230;-80
2022/04/10 06:07:49;;;;;;;5.03;1.30;;;15.30;73.90;13.60;99267;;;;573460;246;24145;-78
2022/04/10 06:10:17;;;;;;;4.37;1.73;;;14.60;77.30;13.60;99280;;;;574449;246;24073;-79
2022/04/10 06:12:45;;;;;;;3.90;1.50;;;13.90;82.40;12.90;99264;;;;573362;246;24078;-78
2022/04/10 06:15:13;;;;;;;3.30;1.37;;;13.80;82.30;13.20;99275;;;;573047;246;24085;-78
2022/04/10 06:17:41;;;;;;;3.93;1.70;;;14.00;82.60;13.10;99276;;;;577670;245;24057;-78
2022/04/10 06:20:09;;;;;;;4.70;1.80;;;13.90;78.90;13.70;99264;;;;574258;245;24100;-79
2022/04/10 06:22:37;;;;;;;3.60;1.50;;;14.20;78.70;15.40;99280;;;;574024;246;24053;-80
2022/04/10 06:25:09;;;;;;;3.53;1.57;;;15.60;73.80;16.80;99279;;;;552322;254;24170;-78
2022/04/10 06:27:33;;;;;;;5.80;1.83;;;17.00;69.00;18.30;99293;;;;586204;245;24056;-83
2022/04/10 06:30:01;;;;;;;4.07;1.50;;;18.50;63.50;19.50;99283;;;;573989;245;24110;-78
2022/04/10 06:32:29;;;;;;;3.27;1.80;;;19.70;59.70;20.80;99307;;;;573807;246;24099;-81
2022/04/10 06:34:57;;;;;;;3.03;1.60;;;21.00;56.10;21.80;99296;;;;573937;245;24068;-82
2022/04/10 06:37:25;;;;;;;3.33;1.57;;;22.20;52.80;22.10;99309;;;;573559;246;24048;-80
2022/04/10 06:39:53;;;;;;;3.23;1.53;;;22.70;50.20;22.60;99304;;;;573554;246;24083;-80
2022/04/10 06:42:21;;;;;;;4.13;1.70;;;23.10;49.20;23.10;99318;;;;574321;246;24071;-82
2022/04/10 06:44:49;;;;;;;3.63;1.47;;;23.70;48.40;24.00;99310;;;;574035;246;24041;-81
2022/04/10 06:47:17;;;;;;;2.77;1.70;;;24.50;46.70;24.50;99330;;;;574371;246;24045;-85
2022/04/10 06:49:45;;;;;;;4.57;2.00;;;25.10;45.60;24.20;99340;;;;577600;240;24138;-83
2022/04/10 06:52:12;;;;;;;5.33;1.53;;;25.20;44.90;22.90;99321;;;;574203;246;24055;-79
2022/04/10 06:54:43;;;;;;;5.53;2.40;;;24.20;44.90;22.70;99327;;;;576703;246;24064;-80
2022/04/10 06:57:15;;;;;;;4.70;1.70;;;23.60;46.20;22.80;99350;;;;572870;246;24050;-79
2022/04/10 06:59:40;;;;;;;6.62;2.15;;;23.50;46.20;23.90;99344;;;;567822;246;35119;-79
2022/04/10 07:02:07;;;;;;;6.43;2.33;;;24.20;46.40;23.80;99350;;;;572921;246;24085;-78
2022/04/10 07:04:36;;;;;;;4.20;1.80;;;24.50;45.00;23.60;99350;;;;573051;246;24056;-78
2022/04/10 07:07:04;;;;;;;4.37;1.60;;;24.80;45.00;24.40;99357;;;;572955;246;24055;-79
2022/04/10 07:09:33;;;;;;;5.73;2.20;;;25.40;44.10;24.90;99362;;;;573118;246;23078;-80
2022/04/10 07:12:01;;;;;;;3.20;2.03;;;25.40;43.60;25.20;99384;;;;572915;245;24086;-79
2022/04/10 07:14:28;;;;;;;3.73;2.00;;;25.90;42.70;25.10;99385;;;;572928;246;24105;-80
2022/04/10 07:16:56;;;;;;;4.77;2.30;;;25.90;42.20;25.60;99361;;;;573007;246;23087;-82
2022/04/10 07:19:25;;;;;;;4.77;2.30;;;26.30;41.70;25.80;99385;;;;572957;245;24066;-80
2022/04/10 07:24:39;;;;;;;6.43;2.17;;;27.00;41.00;26.50;99386;;;;576386;246;23099;-79
2022/04/10 07:27:07;;;;;;;4.50;2.20;;;27.20;40.30;26.40;99386;;;;550960;255;23118;-80
2022/04/10 07:29:35;;;;;;;5.40;2.27;;;27.50;40.00;27.10;99404;;;;577619;245;24037;-79
2022/04/10 07:32:06;;;;;;;6.70;2.30;;;27.50;40.00;27.00;99389;;;;574208;245;24117;-80
2022/04/10 07:34:35;;;;;;;4.37;2.20;;;27.70;39.10;26.50;99394;;;;577047;246;23067;-79
2022/04/10 07:36:59;;;;;;;9.20;2.30;;;27.50;38.70;26.80;99396;;;;576713;246;23164;-79
2022/04/10 07:39:27;;;;;;;6.97;2.10;;;27.40;39.10;27.30;99407;;;;573519;246;23073;-79
2022/04/10 07:41:55;;;;;;;7.07;2.07;;;27.70;39.40;27.30;99414;;;;573382;240;23152;-79
2022/04/10 07:44:24;;;;;;;6.30;2.20;;;28.00;38.70;27.40;99409;;;;573836;246;23060;-80
2022/04/10 07:49:38;;;;;;;2.47;1.77;;;27.80;38.80;27.20;99418;;;;576928;246;23124;-79
2022/04/10 07:52:05;;;;;;;5.40;2.30;;;27.80;39.00;27.40;99421;;;;551414;255;23176;-78
2022/04/10 07:54:33;;;;;;;3.70;2.47;;;27.90;38.40;27.70;99432;;;;577212;246;23062;-79
2022/04/10 07:57:03;;;;;;;8.73;2.60;;;28.20;38.00;28.00;99428;;;;573743;245;23103;-79
2022/04/10 07:59:29;;;;;;;6.97;2.40;;;28.60;37.60;28.00;99432;;;;573926;246;23113;-83
2022/04/10 08:01:58;;;;;;;6.90;2.80;;;28.80;37.20;28.10;99448;;;;574284;246;24084;-83
2022/04/10 08:04:26;;;;;;;8.00;2.40;;;28.70;37.10;27.40;99454;;;;574337;245;23041;-79
2022/04/10 08:06:54;;;;;;;6.50;2.97;;;28.40;37.30;24.90;99450;;;;573525;246;23052;-80
2022/04/10 08:09:23;;;;;;;4.03;2.10;;;24.30;42.00;22.00;99449;;;;573548;246;24104;-79
2022/04/10 08:11:55;;;;;;;6.10;2.50;;;24.20;41.90;20.50;99465;;;;573687;246;24099;-81
2022/04/10 08:14:19;;;;;;;4.63;2.70;;;22.40;44.80;19.80;99449;;;;576922;244;24146;-80
2022/04/10 08:16:47;;;;;;;4.73;2.20;;;21.20;45.90;20.80;99457;;;;576967;246;24067;-79
2022/04/10 08:19:15;;;;;;;5.50;2.07;;;21.30;46.30;22.10;99464;;;;577017;246;24123;-80
2022/04/10 08:21:43;;;;;;;8.07;2.60;;;22.30;44.80;23.20;99457;;;;573404;246;24106;-80
2022/04/10 08:24:11;;;;;;;5.20;2.50;;;23.50;43.00;24.40;99457;;;;573841;245;24103;-79
2022/04/10 08:26:39;;;;;;;6.80;2.27;;;24.70;41.30;24.90;99467;;;;573335;246;24165;-80
2022/04/10 08:29:07;;;;;;;5.97;2.50;;;25.50;39.60;25.50;99466;;;;573211;246;25108;-79
2022/04/10 08:31:36;;;;;;;4.00;2.47;;;26.80;37.60;26.20;99472;;;;573315;246;24108;-79
2022/04/10 08:34:04;;;;;;;4.73;2.03;;;27.20;37.20;26.30;99475;;;;573435;246;23113;-77
2022/04/10 08:36:33;;;;;;;5.90;2.73;;;27.20;37.20;26.40;99479;;;;573204;246;23094;-78
2022/04/10 08:39:00;;;;;;;5.40;1.93;;;27.40;36.50;27.20;99472;;;;573208;246;24095;-78
2022/04/10 08:41:31;;;;;;;4.50;2.03;;;27.80;36.60;28.00;99496;;;;574510;245;24119;-79
2022/04/10 08:43:56;;;;;;;5.10;2.67;;;28.70;36.00;28.60;99488;;;;577541;245;23088;-83
2022/04/10 08:46:24;;;;;;;6.97;2.20;;;29.40;35.20;28.30;99501;;;;573872;246;23054;-79
2022/04/10 08:48:55;;;;;;;5.90;2.17;;;29.60;34.40;27.50;99496;;;;552036;256;23175;-78
2022/04/10 08:51:22;;;;;;;6.10;2.53;;;29.00;34.60;26.00;99516;;;;576881;246;23074;-79
2022/04/10 08:53:48;;;;;;;6.23;2.53;;;25.60;41.20;23.00;99504;;;;576919;246;23079;-84
2022/04/10 08:56:16;;;;;;;3.80;2.23;;;25.50;41.10;21.30;99514;;;;577204;244;24072;-84
2022/04/10 08:58:44;;;;;;;8.77;2.53;;;23.40;47.10;21.10;99512;;;;573705;245;24053;-80
2022/04/10 09:01:12;;;;;;;5.10;2.03;;;22.50;45.50;22.20;99512;;;;573203;246;24090;-79
2022/04/10 09:03:40;;;;;;;6.87;2.50;;;23.10;46.70;22.20;99517;;;;576955;244;24048;-82
2022/04/10 09:06:08;;;;;;;4.40;2.40;;;23.00;46.60;22.20;99510;;;;580528;242;24049;-83
2022/04/10 09:08:38;;;;;;;4.03;2.40;;;23.20;44.60;23.00;99524;;;;576896;246;24046;-80
2022/04/10 09:11:08;;;;;;;5.80;2.77;;;24.80;41.60;24.10;99522;;;;573759;246;24103;-83
2022/04/10 09:13:48;;;;;;;5.27;2.47;;;24.70;41.50;24.90;99512;;;;551422;255;24112;-80
2022/04/10 09:16:15;;;;;;;5.23;3.00;;;25.70;40.10;25.70;99511;;;;576951;246;23134;-79
2022/04/10 09:18:55;;;;;;;6.83;3.20;;;26.50;38.90;26.30;99524;;;;576451;246;24060;-80
2022/04/10 09:21:29;;;;;;;7.27;2.67;;;27.30;37.00;27.10;99518;;;;574647;246;24109;-81
2022/04/10 09:23:56;;;;;;;5.30;2.70;;;28.10;36.60;27.30;99520;;;;576379;246;23071;-80
2022/04/10 09:26:24;;;;;;;5.80;2.27;;;28.60;35.40;27.10;99526;;;;576012;246;23102;-81
2022/04/10 09:28:56;;;;;;;5.50;2.60;;;28.60;34.70;26.70;99549;;;;576961;246;23098;-84
2022/04/10 09:31:29;;;;;;;6.40;2.87;;;28.10;35.40;26.60;99542;;;;576696;246;23083;-81
2022/04/10 09:33:57;;;;;;;4.57;2.73;;;28.10;35.30;26.50;99548;;;;573112;246;23121;-82
2022/04/10 09:36:40;;;;;;;5.33;2.20;;;28.00;34.80;26.90;99541;;;;576576;246;23067;-81
2022/04/10 09:39:11;;;;;;;6.73;2.80;;;28.60;34.00;27.30;99548;;;;569907;246;23147;-83
2022/04/10 09:41:42;;;;;;;5.55;2.08;;;28.60;34.00;27.80;99536;;;;576543;246;23087;-79
2022/04/10 09:44:13;;;;;;;4.93;2.55;;;29.00;33.60;28.80;99522;;;;585509;245;23128;-78
2022/04/10 09:46:41;;;;;;;3.72;2.15;;;29.90;33.90;29.20;99554;;;;559799;256;23151;-82
2022/04/10 09:49:15;;;;;;;4.90;1.95;;;30.40;34.60;27.10;99564;;;;562407;251;23139;-79
2022/04/10 09:51:42;;;;;;;3.33;1.83;;;29.60;33.80;24.20;99544;;;;576965;245;23143;-83
2022/04/10 09:54:10;;;;;;;4.13;1.93;;;27.10;36.90;22.90;99560;;;;574479;245;24137;-84
2022/04/10 09:56:38;;;;;;;5.97;3.33;;;25.30;39.20;23.90;99562;;;;560932;254;23143;-82
2022/04/10 09:59:06;;;;;;;7.30;2.40;;;25.30;40.20;24.80;99572;;;;577712;246;24058;-79
2022/04/10 10:01:34;;;;;;;3.73;2.27;;;26.10;39.20;25.40;99565;;;;576456;246;23172;-80
2022/04/10 10:04:04;;;;;;;5.43;2.77;;;26.70;38.30;26.10;99588;;;;577550;246;23098;-79
2022/04/10 10:06:32;;;;;;;6.97;2.60;;;27.50;37.80;27.20;99579;;;;576670;246;23068;-80
2022/04/10 10:09:00;;;;;;;8.97;3.03;;;28.40;36.60;26.70;99574;;;;577725;244;23090;-80
2022/04/10 10:11:25;;;;;;;7.33;2.47;;;28.60;35.70;24.40;99581;;;;576285;246;24085;-80
2022/04/10 10:13:56;;;;;;;3.63;1.87;;;26.90;36.30;22.40;99571;;;;574036;246;23106;-78
2022/04/10 10:16:21;;;;;;;3.83;1.80;;;25.00;39.40;20.70;99573;;;;552897;256;24107;-81
2022/04/10 10:18:49;;;;;;;3.83;1.83;;;22.80;43.20;19.00;99584;;;;586528;240;24066;-79
2022/04/10 10:21:17;;;;;;;7.30;2.40;;;20.80;46.10;17.70;99595;;;;577802;244;24041;-79
2022/04/10 10:23:46;;;;;;;5.13;2.37;;;17.90;49.70;16.60;99581;;;;552180;256;24125;-78
2022/04/10 10:26:28;;;;;;;4.03;1.87;;;17.80;49.70;15.90;99573;;;;577580;246;24119;-78
2022/04/10 10:29:26;;;;;;;4.47;1.53;;;16.90;51.10;15.60;99563;;;;574154;246;24073;-78
2022/04/10 10:32:03;;;;;;;2.77;1.70;;;16.50;52.50;15.20;99571;;;;579748;245;24093;-80
2022/04/10 10:34:34;;;;;;;4.73;1.90;;;16.00;53.20;14.80;99579;;;;576465;246;24135;-80
2022/04/10 10:37:00;;;;;;;5.03;1.63;;;15.60;53.20;14.40;99583;;;;577208;246;24132;-79
2022/04/10 10:39:34;;;;;;;6.97;1.87;;;15.30;53.00;13.70;99580;;;;576199;240;24051;-76
2022/04/10 10:42:11;;;;;;;4.17;1.60;;;14.70;52.10;13.30;99567;;;;584938;245;24056;-79
2022/04/10 10:44:39;;;;;;;6.03;1.37;;;14.20;53.60;13.30;99575;;;;580761;246;24073;-79
2022/04/10 10:47:07;;;;;;;6.90;1.57;;;13.80;56.90;12.90;99566;;;;573700;246;24045;-79
2022/04/10 10:49:48;;;;;;;5.67;1.40;;;13.40;58.00;12.60;99577;;;;575603;246;24094;-79
2022/04/10 10:52:16;;;;;;;1.97;0.90;;;13.30;57.90;12.10;99572;;;;577257;246;24067;-79
2022/04/10 10:54:56;;;;;;;6.00;2.00;;;12.90;58.20;11.60;99570;;;;586097;243;24109;-77
2022/04/10 10:57:42;;;;;;;3.03;1.33;;;12.40;58.10;11.30;99575;;;;586262;245;24159;-83
2022/04/10 11:00:15;;;;;;;1.87;1.30;;;12.10;59.10;10.90;99577;;;;577320;246;24278;-79
2022/04/10 11:02:50;;;;;;;6.27;1.70;;;11.40;60.20;10.60;99584;;;;577152;246;24193;-82
2022/04/10 11:05:30;;;;;;;4.93;1.20;;;11.30;60.10;10.40;99587;;;;578003;245;24063;-82
2022/04/10 11:08:12;;;;;;;2.00;0.80;;;11.10;60.40;10.10;99591;;;;578106;246;24079;-82
2022/04/10 11:10:37;;;;;;;3.70;1.03;;;10.80;60.20;9.80;99585;;;;577666;246;24055;-78
2022/04/10 11:13:08;;;;;;;2.80;0.77;;;10.60;59.60;9.80;99588;;;;576522;246;24076;-80
2022/04/10 11:15:52;;;;;;;3.17;0.73;;;10.40;59.00;9.60;99593;;;;577812;246;24071;-85
2022/04/10 11:18:33;;;;;;;3.57;1.10;;;10.30;58.90;9.50;99587;;;;577308;246;24071;-84
2022/04/10 11:21:04;;;;;;;2.87;1.57;;;10.20;59.10;9.40;99595;;;;577780;246;24101;-82
2022/04/10 11:23:30;;;;;;;2.83;1.10;;;10.10;59.90;9.20;99584;;;;575992;246;24128;-81
2022/04/10 11:26:02;;;;;;;5.83;1.37;;;9.80;60.70;9.10;99590;;;;577293;246;24087;-79
2022/04/10 11:28:54;;;;;;;4.87;1.95;;;9.80;60.70;9.00;99598;;;;572320;246;35036;-79
2022/04/10 11:31:38;;;;;;;2.93;1.10;;;9.70;61.60;8.90;99590;;;;577004;246;24152;-79
2022/04/10 11:34:18;;;;;;;3.83;1.50;;;9.60;62.60;8.70;99594;;;;577224;246;24096;-81
2022/04/10 11:36:52;;;;;;;1.67;1.30;;;9.30;64.30;8.60;99599;;;;559633;255;24139;-82
2022/04/10 11:39:25;;;;;;;3.07;1.70;;;9.30;64.30;8.60;99611;;;;577207;246;24045;-82